Time;durP1;ratioP1;P1;durP2;ratioP2;P2;SDS_P1;SDS_P2;PMS_P1;PMS_P2;Temp;Humidity;BMP_temperature;BMP_pressure;BME280_temperature;BME280_humidity;BME280_pressure;Samples;Min_cycle;Max_cycle;Signal;HPM_P1;HPM_P2
2022/02/20 00:01:26;;;;;;;35.85;19.08;;;;;;;7.68;49.26;99914.19;5050618;28;20033;-37
2022/02/20 00:03:52;;;;;;;32.50;16.55;;;;;;;7.74;48.77;99916.91;5050645;28;20086;-37
2022/02/20 00:06:17;;;;;;;30.25;16.27;;;;;;;7.58;49.24;99917.09;5051052;28;20368;-39
2022/02/20 00:08:43;;;;;;;31.85;15.90;;;;;;;7.69;49.29;99914.00;5056637;28;20480;-38
2022/02/20 00:11:08;;;;;;;29.88;14.95;;;;;;;7.72;48.86;99916.28;5071057;28;20025;-37
2022/02/20 00:13:34;;;;;;;30.20;14.88;;;;;;;7.68;49.21;99922.94;5070799;28;20448;-38
2022/02/20 00:15:59;;;;;;;30.90;14.30;;;;;;;7.84;48.54;99919.31;5070603;28;20082;-37
2022/02/20 00:18:25;;;;;;;27.90;13.85;;;;;;;7.75;48.68;99921.22;5070793;28;20035;-37
2022/02/20 00:20:51;;;;;;;23.23;13.35;;;;;;;7.62;48.82;99919.19;5070034;28;20462;-37
2022/02/20 00:23:16;;;;;;;23.33;12.90;;;;;;;7.69;49.07;99923.75;5070550;28;20036;-37
2022/02/20 00:25:42;;;;;;;21.83;11.55;;;;;;;7.60;49.04;99921.19;5070723;28;20055;-37
2022/02/20 00:28:07;;;;;;;26.83;12.65;;;;;;;7.51;49.21;99916.16;5070309;28;20039;-37
2022/02/20 00:30:33;;;;;;;24.20;12.48;;;;;;;7.55;49.68;99912.16;5069654;28;20024;-38
2022/02/20 00:33:00;;;;;;;24.20;12.13;;;;;;;7.29;49.92;99912.53;5070227;28;20027;-37
2022/02/20 00:35:29;;;;;;;22.08;12.93;;;;;;;7.08;50.77;99907.88;5070378;28;20028;-37
2022/02/20 00:37:55;;;;;;;28.55;13.45;;;;;;;6.97;51.18;99914.44;5070402;28;20047;-38
2022/02/20 00:40:21;;;;;;;23.35;13.07;;;;;;;6.85;51.52;99922.75;5070636;28;20440;-38
2022/02/20 00:42:46;;;;;;;29.70;13.15;;;;;;;6.77;51.63;99933.38;5063464;28;20174;-38
2022/02/20 00:45:12;;;;;;;23.33;12.70;;;;;;;7.21;50.72;99921.34;5032505;28;20036;-38
2022/02/20 00:47:37;;;;;;;23.95;12.43;;;;;;;7.60;49.65;99918.53;5050740;28;20041;-38
2022/02/20 00:50:03;;;;;;;23.58;12.93;;;;;;;7.30;50.14;99922.94;5050324;28;20100;-38
2022/02/20 00:52:28;;;;;;;25.13;12.43;;;;;;;6.97;51.20;99925.84;5049991;28;20075;-38
2022/02/20 00:54:54;;;;;;;24.48;13.18;;;;;;;6.80;51.95;99927.75;5050110;28;20036;-38
2022/02/20 00:57:21;;;;;;;24.35;12.15;;;;;;;6.53;52.53;99925.56;5049945;28;20025;-37
2022/02/20 00:59:47;;;;;;;24.33;12.75;;;;;;;6.26;52.78;99891.50;5050115;28;20017;-38
2022/02/20 01:02:12;;;;;;;26.55;13.23;;;;;;;7.30;50.31;99925.59;5049869;28;20036;-37
2022/02/20 01:04:38;;;;;;;26.75;13.32;;;;;;;7.12;51.27;99925.06;5050091;28;20028;-38
2022/02/20 01:07:03;;;;;;;26.38;13.00;;;;;;;7.04;51.31;99905.63;5049914;28;20029;-38
2022/02/20 01:09:29;;;;;;;29.17;13.68;;;;;;;6.77;52.20;99882.31;5062300;28;20024;-38
2022/02/20 01:11:54;;;;;;;23.67;12.57;;;;;;;6.73;52.36;99881.00;5069845;28;20474;-37
2022/02/20 01:14:20;;;;;;;24.45;12.55;;;;;;;6.72;52.67;99888.13;5069965;28;20154;-38
2022/02/20 01:16:45;;;;;;;26.42;13.27;;;;;;;6.64;52.89;99890.81;5070022;28;20035;-37
2022/02/20 01:19:11;;;;;;;24.92;12.60;;;;;;;6.42;53.47;99897.72;5052038;28;20028;-37
2022/02/20 01:21:36;;;;;;;23.42;12.80;;;;;;;6.39;54.13;99879.53;5069675;28;20072;-38
2022/02/20 01:24:02;;;;;;;26.67;13.45;;;;;;;6.41;53.55;99885.47;5035177;28;20471;-37
2022/02/20 01:26:27;;;;;;;28.55;14.30;;;;;;;6.80;52.43;99880.13;5069911;28;20036;-37
2022/02/20 01:28:53;;;;;;;25.42;12.65;;;;;;;7.20;51.10;99869.44;5051754;28;20025;-38
2022/02/20 01:31:18;;;;;;;26.65;13.70;;;;;;;6.78;52.39;99878.69;5069710;28;20025;-38
2022/02/20 01:33:44;;;;;;;24.58;13.30;;;;;;;6.58;53.01;99883.56;5073959;28;20075;-37
2022/02/20 01:36:09;;;;;;;30.10;13.80;;;;;;;6.42;53.04;99882.66;5073901;28;20039;-37
2022/02/20 01:38:35;;;;;;;29.23;13.88;;;;;;;6.33;54.20;99888.97;5073717;28;20545;-37
2022/02/20 01:41:00;;;;;;;26.52;14.38;;;;;;;6.17;54.26;99881.97;5073943;28;20025;-38
2022/02/20 01:43:26;;;;;;;30.27;15.35;;;;;;;6.32;54.23;99886.50;5061332;28;20063;-37
2022/02/20 01:45:51;;;;;;;31.83;17.05;;;;;;;6.55;54.41;99884.75;5053729;28;20021;-37
2022/02/20 01:48:17;;;;;;;37.60;18.30;;;;;;;7.19;51.99;99884.47;5053781;28;20462;-38
2022/02/20 01:50:42;;;;;;;35.83;18.83;;;;;;;6.68;53.56;99886.00;5053271;28;20029;-37
2022/02/20 01:53:08;;;;;;;37.10;19.80;;;;;;;6.64;53.94;99874.94;5053301;28;20037;-37
2022/02/20 01:55:34;;;;;;;41.45;21.27;;;;;;;6.37;54.81;99870.97;5053566;28;20036;-38
2022/02/20 01:57:59;;;;;;;41.83;21.17;;;;;;;6.15;55.70;99865.44;5053259;28;20036;-37
2022/02/20 02:00:25;;;;;;;41.88;21.40;;;;;;;6.21;55.46;99861.31;5053585;28;20021;-37
2022/02/20 02:02:51;;;;;;;38.55;20.60;;;;;;;6.02;55.84;99865.19;5053184;28;20025;-37
2022/02/20 02:05:16;;;;;;;44.00;21.60;;;;;;;6.02;56.00;99857.25;5053226;28;20032;-37
2022/02/20 02:07:42;;;;;;;44.13;20.98;;;;;;;6.64;54.02;99857.28;5053147;28;20029;-38
2022/02/20 02:10:07;;;;;;;40.42;20.50;;;;;;;6.79;53.53;99861.78;5070716;28;20040;-38
2022/02/20 02:12:34;;;;;;;41.28;20.58;;;;;;;6.46;54.63;99856.72;5073330;28;20032;-38
2022/02/20 02:15:08;;;;;;;35.92;19.05;;;;;;;6.09;55.62;99857.38;5073184;28;20395;-37
2022/02/20 02:17:34;;;;;;;38.05;20.23;;;;;;;6.05;55.65;99855.09;5073229;28;20067;-37
2022/02/20 02:19:59;;;;;;;36.25;20.00;;;;;;;5.88;56.01;99859.56;5072967;28;20403;-37
2022/02/20 02:22:26;;;;;;;38.65;20.20;;;;;;;5.68;56.83;99877.59;5072959;28;20563;-37
2022/02/20 02:24:52;;;;;;;38.47;20.35;;;;;;;5.47;58.06;99882.59;5073122;28;20020;-37
2022/02/20 02:27:17;;;;;;;40.90;20.25;;;;;;;5.46;58.03;99900.25;5073126;28;20039;-37
2022/02/20 02:29:43;;;;;;;40.03;19.20;;;;;;;5.61;57.63;99896.94;5054965;28;20121;-37
2022/02/20 02:32:09;;;;;;;37.33;18.40;;;;;;;5.64;57.42;99905.34;5072729;28;20082;-37
2022/02/20 02:34:34;;;;;;;34.70;18.17;;;;;;;5.69;57.47;99904.81;5072933;28;20020;-37
2022/02/20 02:37:00;;;;;;;34.78;18.33;;;;;;;5.84;57.08;99905.78;5072729;28;20505;-37
2022/02/20 02:39:25;;;;;;;30.05;17.60;;;;;;;6.50;55.44;99908.25;5072803;28;20035;-37
2022/02/20 02:41:51;;;;;;;38.75;18.27;;;;;;;6.80;53.52;99906.59;5072725;28;20029;-37
2022/02/20 02:44:16;;;;;;;34.15;17.13;;;;;;;6.44;55.10;99906.28;5052730;28;20028;-38
2022/02/20 02:46:42;;;;;;;34.35;17.58;;;;;;;6.10;55.75;99899.47;5052594;28;20052;-38
2022/02/20 02:49:07;;;;;;;31.23;16.75;;;;;;;6.01;56.00;99895.22;5052604;28;20060;-37
2022/02/20 02:51:33;;;;;;;30.48;17.17;;;;;;;5.91;56.16;99908.59;5052685;28;20024;-37
2022/02/20 02:53:58;;;;;;;36.08;17.08;;;;;;;5.95;56.36;99904.63;5052515;28;20542;-37
2022/02/20 02:56:24;;;;;;;33.10;16.35;;;;;;;5.96;56.04;99911.59;5052169;28;20021;-38
2022/02/20 02:58:49;;;;;;;26.17;14.95;;;;;;;6.25;55.36;99908.34;5052453;28;20032;-37
2022/02/20 03:01:15;;;;;;;28.95;15.02;;;;;;;6.73;53.70;99916.22;5052553;28;20349;-37
2022/02/20 03:03:40;;;;;;;26.92;14.75;;;;;;;6.55;53.86;99916.47;5052533;28;20025;-37
2022/02/20 03:06:15;;;;;;;26.50;14.07;;;;;;;6.33;54.82;99917.25;5052400;28;20374;-37
2022/02/20 03:08:41;;;;;;;33.63;14.32;;;;;;;6.34;54.80;99927.66;5058057;28;20024;-38
2022/02/20 03:11:06;;;;;;;24.58;13.93;;;;;;;6.09;55.45;99921.59;5072257;28;20102;-38
2022/02/20 03:13:32;;;;;;;27.08;14.07;;;;;;;5.85;56.05;99912.72;5064701;28;20122;-38
2022/02/20 03:15:58;;;;;;;30.33;13.95;;;;;;;5.83;56.16;99904.16;5052190;28;20032;-37
2022/02/20 03:18:24;;;;;;;25.05;13.57;;;;;;;5.72;56.04;99904.50;5051962;28;20112;-37
2022/02/20 03:20:50;;;;;;;22.65;13.25;;;;;;;5.67;56.58;99910.28;5051950;28;20128;-38
2022/02/20 03:23:15;;;;;;;23.88;13.38;;;;;;;5.71;56.25;99902.03;5052079;28;20044;-38
2022/02/20 03:25:41;;;;;;;24.63;13.57;;;;;;;5.76;56.49;99884.69;5051927;28;20597;-38
2022/02/20 03:28:06;;;;;;;23.30;13.43;;;;;;;6.70;53.88;99876.06;5051817;28;20028;-36
2022/02/20 03:30:31;;;;;;;25.52;13.30;;;;;;;6.13;54.76;99867.44;5051532;28;20554;-36
2022/02/20 03:32:57;;;;;;;27.35;13.55;;;;;;;5.94;55.35;99855.44;5034356;28;20043;-37
2022/02/20 03:35:23;;;;;;;24.65;12.95;;;;;;;5.85;55.93;99844.06;5052178;28;20029;-37
2022/02/20 03:37:49;;;;;;;24.63;13.30;;;;;;;5.68;56.44;99840.63;5051933;28;20031;-37
2022/02/20 03:40:14;;;;;;;25.35;13.07;;;;;;;5.40;57.32;99850.75;5051864;28;20020;-37
2022/02/20 03:42:40;;;;;;;28.92;13.05;;;;;;;5.23;57.87;99846.50;5052016;28;20028;-37
2022/02/20 03:45:06;;;;;;;23.95;13.05;;;;;;;5.23;58.16;99863.13;5052404;28;20032;-37
2022/02/20 03:47:31;;;;;;;24.10;12.10;;;;;;;5.31;57.76;99872.03;5052121;28;20119;-37
2022/02/20 03:49:57;;;;;;;21.52;12.52;;;;;;;5.16;58.26;99863.97;5033901;28;20504;-37
2022/02/20 03:52:22;;;;;;;24.90;12.65;;;;;;;5.36;57.56;99861.81;5052052;28;20025;-37
2022/02/20 03:54:48;;;;;;;25.60;13.25;;;;;;;5.45;57.59;99859.00;5051238;28;20473;-37
2022/02/20 03:57:13;;;;;;;24.98;13.70;;;;;;;6.35;54.59;99849.16;5051973;28;20029;-38
2022/02/20 03:59:39;;;;;;;24.77;13.18;;;;;;;5.91;56.08;99849.66;5051407;28;20377;-38
2022/02/20 04:02:04;;;;;;;25.38;13.52;;;;;;;5.76;56.49;99849.53;5051448;28;20025;-38
2022/02/20 04:04:30;;;;;;;26.85;13.63;;;;;;;5.59;56.27;99846.94;5051562;28;20028;-37
2022/02/20 04:06:55;;;;;;;26.88;13.65;;;;;;;5.53;56.95;99842.31;5051738;28;20357;-38
2022/02/20 04:09:21;;;;;;;26.52;13.15;;;;;;;5.91;55.81;99839.09;5062416;28;20024;-38
2022/02/20 04:11:46;;;;;;;29.23;14.63;;;;;;;5.74;56.30;99835.69;5071143;28;20033;-38
2022/02/20 04:14:12;;;;;;;26.70;14.40;;;;;;;5.54;57.20;99848.41;5071310;28;20526;-39
2022/02/20 04:16:37;;;;;;;24.85;13.45;;;;;;;5.52;56.86;99845.13;5071101;28;20135;-38
2022/02/20 04:19:03;;;;;;;24.45;13.63;;;;;;;5.25;58.19;99833.94;5071155;28;20036;-37
2022/02/20 04:21:29;;;;;;;27.65;13.27;;;;;;;5.29;57.86;99829.97;5071142;28;20407;-37
2022/02/20 04:23:54;;;;;;;26.42;14.13;;;;;;;5.16;58.49;99827.88;5071316;28;20035;-37
2022/02/20 04:26:20;;;;;;;26.17;13.80;;;;;;;5.22;58.45;99818.47;5071192;28;20032;-37
2022/02/20 04:28:45;;;;;;;26.25;14.32;;;;;;;5.78;56.53;99806.09;5071152;28;20028;-37
2022/02/20 04:31:11;;;;;;;26.77;13.40;;;;;;;6.00;55.91;99796.66;5071179;28;20032;-37
2022/02/20 04:33:37;;;;;;;27.13;13.52;;;;;;;5.57;56.94;99790.84;5070965;28;20086;-36
2022/02/20 04:36:03;;;;;;;24.15;13.15;;;;;;;5.40;57.63;99792.69;5070909;28;20062;-37
2022/02/20 04:38:29;;;;;;;24.75;13.10;;;;;;;5.19;58.58;99787.94;5070822;28;20106;-37
2022/02/20 04:40:54;;;;;;;24.15;13.98;;;;;;;5.03;59.25;99798.53;5070866;28;20146;-37
2022/02/20 04:43:20;;;;;;;28.30;14.15;;;;;;;4.98;59.57;99808.75;5059294;28;20129;-36
2022/02/20 04:45:45;;;;;;;25.90;13.70;;;;;;;5.03;59.61;99832.81;5050728;28;20468;-36
2022/02/20 04:48:11;;;;;;;26.20;13.43;;;;;;;5.13;59.40;99832.66;5050626;28;20031;-36
2022/02/20 04:50:36;;;;;;;23.48;13.77;;;;;;;5.46;59.07;99826.34;5050555;28;20071;-36
2022/02/20 04:53:02;;;;;;;27.55;13.88;;;;;;;6.15;56.63;99823.16;5050395;28;20412;-37
2022/02/20 04:55:27;;;;;;;29.63;13.85;;;;;;;5.72;57.70;99820.00;5050562;28;20044;-37
2022/02/20 04:57:52;;;;;;;24.40;12.75;;;;;;;5.53;58.04;99821.22;5050340;28;20074;-37
2022/02/20 05:00:18;;;;;;;24.48;13.75;;;;;;;5.23;59.12;99817.47;5050340;28;20029;-37
2022/02/20 05:02:43;;;;;;;25.88;13.32;;;;;;;5.22;58.98;99818.47;5050701;28;20028;-37
2022/02/20 05:05:10;;;;;;;26.35;14.05;;;;;;;5.35;58.57;99821.41;5050800;28;20025;-37
2022/02/20 05:07:36;;;;;;;24.27;12.77;;;;;;;5.36;58.83;99830.16;5050858;28;20021;-38
2022/02/20 05:10:02;;;;;;;22.95;13.15;;;;;;;5.49;58.51;99818.06;5067428;28;20472;-38
2022/02/20 05:12:27;;;;;;;28.15;13.85;;;;;;;5.53;58.30;99836.22;5070711;28;20023;-38
2022/02/20 05:14:53;;;;;;;28.23;14.35;;;;;;;5.98;57.14;99853.31;5070592;28;20037;-36
2022/02/20 05:17:19;;;;;;;29.90;13.35;;;;;;;6.35;55.83;99839.41;5070721;28;20043;-37
2022/02/20 05:19:45;;;;;;;22.75;12.60;;;;;;;6.01;56.50;99842.38;5070708;28;20036;-37
2022/02/20 05:22:10;;;;;;;23.15;11.55;;;;;;;5.95;56.63;99857.09;5070340;28;20044;-37
2022/02/20 05:24:35;;;;;;;20.50;11.63;;;;;;;5.81;57.01;99869.16;5070863;28;20029;-37
2022/02/20 05:27:01;;;;;;;23.35;11.00;;;;;;;5.70;57.72;99898.56;5070532;28;20031;-37
2022/02/20 05:29:26;;;;;;;20.50;10.77;;;;;;;5.61;57.50;99895.09;5070526;28;20036;-37
2022/02/20 05:31:52;;;;;;;19.50;10.27;;;;;;;6.50;55.24;99902.13;5069949;28;20028;-37
2022/02/20 05:34:17;;;;;;;17.00;9.95;;;;;;;6.48;54.48;99914.69;5070639;28;20032;-38
2022/02/20 05:36:43;;;;;;;17.95;10.02;;;;;;;6.15;55.35;99920.94;5070386;28;20036;-38
2022/02/20 05:39:08;;;;;;;17.80;9.85;;;;;;;5.89;56.42;99910.56;5070602;28;20082;-38
2022/02/20 05:41:34;;;;;;;19.88;8.82;;;;;;;5.59;56.95;99915.56;5070748;28;20024;-38
2022/02/20 05:43:59;;;;;;;15.13;8.18;;;;;;;5.62;57.00;99911.78;5053470;28;20520;-38
2022/02/20 05:46:25;;;;;;;17.73;8.60;;;;;;;5.92;56.06;99914.69;5050378;28;20032;-38
2022/02/20 05:48:50;;;;;;;18.98;8.60;;;;;;;5.80;55.93;99907.13;5050453;28;20029;-37
2022/02/20 05:51:16;;;;;;;19.75;8.35;;;;;;;5.74;56.48;99901.69;5032549;28;20369;-38
2022/02/20 05:53:42;;;;;;;16.90;8.27;;;;;;;6.46;54.90;99913.03;5050478;28;20552;-38
2022/02/20 05:56:07;;;;;;;16.10;7.97;;;;;;;6.34;55.03;99932.09;5050470;28;20029;-38
2022/02/20 05:58:33;;;;;;;18.80;9.52;;;;;;;6.19;55.67;99927.53;5050324;28;20029;-38
2022/02/20 06:00:59;;;;;;;15.77;8.23;;;;;;;6.06;55.62;99940.44;5050417;28;20097;-38
2022/02/20 06:03:24;;;;;;;18.25;8.75;;;;;;;5.58;56.82;99948.25;5050539;28;20025;-38
2022/02/20 06:05:50;;;;;;;19.05;9.88;;;;;;;5.60;57.30;99948.91;5050161;28;20049;-38
2022/02/20 06:08:15;;;;;;;17.70;9.20;;;;;;;5.70;57.02;99964.59;5052316;28;20111;-38
2022/02/20 06:10:41;;;;;;;17.63;9.05;;;;;;;6.49;55.60;99959.44;5070299;28;20376;-37
2022/02/20 06:13:07;;;;;;;18.15;8.95;;;;;;;6.30;55.09;99959.88;5070222;28;20028;-37
2022/02/20 06:15:33;;;;;;;15.70;8.60;;;;;;;6.00;55.66;99970.19;5070145;28;20089;-37
2022/02/20 06:17:58;;;;;;;19.15;8.77;;;;;;;6.00;55.82;99949.88;5070890;28;20051;-51
2022/02/20 06:20:24;;;;;;;17.02;8.48;;;;;;;5.70;56.79;99929.44;5073297;28;20052;-49
2022/02/20 06:22:49;;;;;;;16.23;8.48;;;;;;;5.82;55.94;99920.97;5073726;28;20039;-49
2022/02/20 06:25:15;;;;;;;15.65;8.45;;;;;;;5.71;56.29;99923.16;5073582;28;20029;-49
2022/02/20 06:27:40;;;;;;;16.52;8.82;;;;;;;5.66;56.75;99927.13;5073893;28;20032;-50
2022/02/20 06:30:06;;;;;;;64.43;30.55;;;;;;;5.80;56.69;99928.25;5073543;28;20074;-51
2022/02/20 06:32:31;;;;;;;33.30;16.65;;;;;;;6.70;54.61;99947.47;5072721;28;20059;-51
2022/02/20 06:34:57;;;;;;;21.15;10.82;;;;;;;6.43;54.60;99933.72;5072642;28;20029;-51
2022/02/20 06:37:22;;;;;;;18.05;9.32;;;;;;;6.33;55.08;99919.88;5072831;28;20495;-51
2022/02/20 06:39:48;;;;;;;18.30;9.40;;;;;;;6.15;55.95;99925.38;5073124;28;20024;-51
2022/02/20 06:42:19;;;;;;;17.10;8.77;;;;;;;6.38;54.46;99913.09;5070551;28;20078;-49
2022/02/20 06:44:45;;;;;;;17.52;8.95;;;;;;;6.02;56.00;99896.88;5052846;28;20032;-51
2022/02/20 06:47:11;;;;;;;15.65;8.65;;;;;;;6.14;55.89;99898.13;5052966;28;20103;-50
2022/02/20 06:49:37;;;;;;;15.95;8.70;;;;;;;6.34;55.00;99895.09;5053380;28;20025;-49
2022/02/20 06:52:02;;;;;;;18.42;8.18;;;;;;;6.36;54.87;99899.22;5053035;28;20021;-48
2022/02/20 06:54:28;;;;;;;19.35;8.80;;;;;;;6.78;54.62;99927.09;5053109;28;20036;-51
2022/02/20 06:56:56;;;;;;;16.55;9.10;;;;;;;7.12;53.14;99927.69;5053077;28;20380;-51
2022/02/20 06:59:23;;;;;;;16.98;8.32;;;;;;;7.05;53.64;99925.75;5052841;28;20428;-48
2022/02/20 07:01:48;;;;;;;20.30;9.10;;;;;;;6.92;53.65;99930.00;5052695;28;20484;-48
2022/02/20 07:04:15;;;;;;;17.20;8.80;;;;;;;6.83;53.95;99929.22;5052441;28;20031;-49
2022/02/20 07:06:42;;;;;;;17.88;8.35;;;;;;;6.90;53.74;99916.13;5052604;28;20029;-50
2022/02/20 07:09:09;;;;;;;102.28;42.50;;;;;;;6.64;54.58;99914.59;5062144;28;20525;-51
2022/02/20 07:11:36;;;;;;;18.48;8.80;;;;;;;6.80;53.63;99901.28;5072014;28;20468;-51
2022/02/20 07:14:01;;;;;;;23.75;12.00;;;;;;;6.48;54.94;99912.06;5071252;28;20028;-51
2022/02/20 07:16:27;;;;;;;20.67;9.43;;;;;;;6.43;56.81;99936.34;5052313;28;20025;-49
2022/02/20 07:18:53;;;;;;;75.07;38.75;;;;;;;6.69;55.53;99951.94;5052434;28;20021;-48
2022/02/20 07:21:18;;;;;;;36.10;19.17;;;;;;;6.65;55.92;99956.75;5064550;28;20076;-49
2022/02/20 07:23:44;;;;;;;20.88;9.02;;;;;;;6.64;55.31;99947.19;5072379;28;20113;-49
2022/02/20 07:26:09;;;;;;;17.85;8.98;;;;;;;6.94;54.88;99952.63;5072301;28;20411;-46
2022/02/20 07:28:35;;;;;;;14.88;8.65;;;;;;;7.07;53.73;99944.13;5072242;28;20035;-48
2022/02/20 07:31:00;;;;;;;18.13;8.73;;;;;;;7.03;53.85;99946.28;5071852;28;20476;-48
2022/02/20 07:33:26;;;;;;;17.95;8.82;;;;;;;6.91;54.23;99942.41;5072080;28;20025;-50
2022/02/20 07:35:51;;;;;;;15.93;8.02;;;;;;;6.78;54.45;99928.94;5072121;28;20028;-50
2022/02/20 07:38:17;;;;;;;13.60;8.00;;;;;;;6.97;54.40;99925.00;5071860;28;20020;-50
2022/02/20 07:40:42;;;;;;;18.05;8.35;;;;;;;6.97;54.22;99927.66;5071766;28;20027;-48
2022/02/20 07:43:08;;;;;;;13.20;7.68;;;;;;;6.77;54.61;99927.28;5062038;28;20078;-48
2022/02/20 07:45:33;;;;;;;14.15;7.97;;;;;;;7.72;52.89;99913.63;5051814;28;20748;-49
2022/02/20 07:48:02;;;;;;;32.63;14.65;;;;;;;7.87;51.75;99902.25;5050355;28;20055;-51
2022/02/20 07:50:28;;;;;;;23.67;11.35;;;;;;;7.67;52.53;99912.53;5050129;28;20148;-51
2022/02/20 07:52:55;;;;;;;98.03;46.85;;;;;;;7.63;53.06;99904.09;5051492;28;20020;-49
2022/02/20 07:55:20;;;;;;;49.50;22.88;;;;;;;7.29;54.61;99896.63;5051515;28;20029;-51
2022/02/20 07:57:46;;;;;;;24.23;13.30;;;;;;;7.30;54.20;99883.22;5051697;28;20021;-50
2022/02/20 08:00:13;;;;;;;23.80;13.18;;;;;;;7.20;55.31;99895.91;5051673;28;20645;-47
2022/02/20 08:02:39;;;;;;;23.88;12.82;;;;;;;7.88;53.90;99886.16;5051327;28;20064;-50
2022/02/20 08:05:05;;;;;;;24.98;13.45;;;;;;;8.34;52.14;99885.94;5051539;28;20017;-51
2022/02/20 08:07:31;;;;;;;31.63;18.27;;;;;;;7.95;52.61;99879.09;5051875;28;20025;-51
2022/02/20 08:09:56;;;;;;;51.75;29.02;;;;;;;7.70;54.08;99875.09;5051158;28;20028;-52
2022/02/20 08:12:22;;;;;;;26.73;13.70;;;;;;;7.58;54.18;99859.63;5051097;28;20056;-50
2022/02/20 08:14:48;;;;;;;23.85;12.82;;;;;;;7.98;54.27;99856.72;5051453;28;20029;-49
2022/02/20 08:17:14;;;;;;;23.23;12.57;;;;;;;7.66;54.32;99856.09;5066096;28;20450;-50
2022/02/20 08:19:39;;;;;;;24.88;13.90;;;;;;;7.92;53.73;99852.16;5053202;28;20031;-52
2022/02/20 08:22:05;;;;;;;32.83;14.48;;;;;;;8.50;51.55;99831.88;5071029;28;20044;-52
2022/02/20 08:24:30;;;;;;;28.60;14.65;;;;;;;8.35;51.51;99823.94;5071070;28;20081;-48
2022/02/20 08:26:56;;;;;;;24.00;12.52;;;;;;;8.11;52.59;99843.66;5071278;28;20353;-49
2022/02/20 08:29:21;;;;;;;24.83;13.05;;;;;;;7.93;53.57;99848.50;5068759;28;20020;-50
2022/02/20 08:31:50;;;;;;;24.63;12.50;;;;;;;7.90;53.42;99841.75;5071156;28;20021;-51
2022/02/20 08:34:15;;;;;;;23.10;11.88;;;;;;;8.00;52.90;99860.03;5070796;28;20017;-48
2022/02/20 08:36:41;;;;;;;20.05;11.88;;;;;;;8.20;53.01;99865.56;5070490;28;20119;-48
2022/02/20 08:39:06;;;;;;;20.65;11.68;;;;;;;9.27;49.62;99872.84;5067901;28;20104;-51
2022/02/20 08:41:32;;;;;;;23.50;12.25;;;;;;;9.06;49.66;99873.66;5039641;28;20052;-50
2022/02/20 08:43:58;;;;;;;22.83;11.43;;;;;;;9.09;49.23;99856.53;5041160;28;20025;-49
2022/02/20 08:46:23;;;;;;;23.98;12.32;;;;;;;9.14;49.02;99840.88;5039099;28;20036;-51
2022/02/20 08:48:49;;;;;;;19.98;11.05;;;;;;;8.96;49.55;99836.81;5037524;28;20025;-49
2022/02/20 08:51:16;;;;;;;19.88;11.50;;;;;;;8.71;50.39;99848.84;5040480;28;20118;-52
2022/02/20 08:53:42;;;;;;;20.55;9.80;;;;;;;8.77;50.61;99840.13;5042295;28;20449;-49
2022/02/20 08:56:08;;;;;;;20.10;9.90;;;;;;;8.72;49.96;99822.13;5049597;28;20049;-50
2022/02/20 08:58:33;;;;;;;23.83;10.40;;;;;;;8.76;50.05;99835.84;5050350;28;20687;-48
2022/02/20 09:01:00;;;;;;;17.88;9.73;;;;;;;8.85;50.25;99842.63;5050623;28;20032;-50
2022/02/20 09:03:26;;;;;;;20.77;10.30;;;;;;;9.61;48.89;99838.53;5050783;28;20020;-49
2022/02/20 09:05:51;;;;;;;16.88;10.07;;;;;;;9.96;47.10;99842.84;5050468;28;20334;-52
2022/02/20 09:08:17;;;;;;;18.38;10.40;;;;;;;9.63;47.94;99849.78;5050240;28;20035;-51
2022/02/20 09:10:43;;;;;;;22.52;10.65;;;;;;;9.71;47.97;99850.47;5049853;28;20025;-53
2022/02/20 09:13:08;;;;;;;19.23;10.00;;;;;;;9.67;47.80;99859.84;5049545;28;20017;-51
2022/02/20 09:15:34;;;;;;;17.70;9.80;;;;;;;9.54;47.50;99801.31;5043528;28;20104;-49
2022/02/20 09:18:01;;;;;;;18.40;10.65;;;;;;;9.73;47.07;99837.81;5034512;28;20017;-50
2022/02/20 09:20:27;;;;;;;17.98;10.15;;;;;;;9.83;47.57;99841.97;5027598;28;20049;-50
2022/02/20 09:22:54;;;;;;;21.13;11.32;;;;;;;10.15;46.26;99840.47;5030262;28;20036;-48
2022/02/20 09:25:19;;;;;;;21.73;10.65;;;;;;;10.02;46.75;99845.75;5029980;28;20030;-48
2022/02/20 09:27:45;;;;;;;23.58;11.10;;;;;;;9.96;47.09;99832.22;5033855;28;20515;-47
2022/02/20 09:30:11;;;;;;;17.63;10.05;;;;;;;10.16;46.47;99824.31;5061208;28;20074;-48
2022/02/20 09:32:39;;;;;;;19.20;10.13;;;;;;;11.08;43.96;99813.25;5034904;28;20135;-48
2022/02/20 09:35:05;;;;;;;33.05;19.27;;;;;;;10.86;44.51;99831.28;5017954;28;20143;-38
2022/02/20 09:37:30;;;;;;;20.50;11.20;;;;;;;10.76;44.94;99845.00;5048820;28;20657;-39
2022/02/20 09:39:56;;;;;;;19.35;9.65;;;;;;;11.10;44.28;99852.00;5049399;28;20040;-38
2022/02/20 09:42:21;;;;;;;18.17;9.75;;;;;;;11.28;43.61;99851.38;5049649;28;20099;-38
2022/02/20 09:44:47;;;;;;;17.08;9.77;;;;;;;11.16;44.29;99834.38;5031268;28;20037;-38
2022/02/20 09:47:12;;;;;;;17.83;9.32;;;;;;;11.24;44.50;99847.47;5048948;28;20036;-37
2022/02/20 09:49:38;;;;;;;18.13;10.30;;;;;;;11.17;44.56;99835.19;5049500;28;20035;-37
2022/02/20 09:52:04;;;;;;;19.65;10.82;;;;;;;11.12;44.30;99818.00;5049557;28;20025;-38
2022/02/20 09:54:30;;;;;;;19.23;10.63;;;;;;;11.63;43.21;99800.50;5053178;28;20025;-37
2022/02/20 09:56:55;;;;;;;17.05;10.23;;;;;;;12.50;41.16;99802.84;5053677;28;20039;-37
2022/02/20 09:59:21;;;;;;;20.00;10.05;;;;;;;12.21;41.53;99815.72;5053630;28;20029;-38
2022/02/20 10:02:07;;;;;;;19.75;10.07;;;;;;;12.00;42.55;99795.50;5053137;28;20028;-38
2022/02/20 10:04:43;;;;;;;19.38;10.00;;;;;;;12.04;41.88;99785.22;5053354;28;20029;-38
2022/02/20 10:07:53;;;;;;;36.17;17.92;;;;;;;12.74;40.88;99776.38;5053621;28;20045;-38
2022/02/20 10:10:20;;;;;;;18.67;10.63;;;;;;;12.51;41.72;99777.78;5051043;28;20074;-38
2022/02/20 10:12:46;;;;;;;19.05;9.18;;;;;;;12.36;41.73;99778.09;5052316;28;20112;-38
2022/02/20 10:15:28;;;;;;;15.18;9.27;;;;;;;12.94;40.87;99766.38;5052831;28;20099;-39
2022/02/20 10:17:58;;;;;;;16.80;8.73;;;;;;;13.16;39.60;99764.13;5053002;28;20430;-38
2022/02/20 10:20:24;;;;;;;13.43;8.30;;;;;;;12.80;40.47;99763.00;5052927;28;20133;-38
2022/02/20 10:22:50;;;;;;;16.35;8.52;;;;;;;12.77;40.80;99763.41;5052557;28;20056;-38
2022/02/20 10:25:15;;;;;;;14.80;8.68;;;;;;;13.72;38.93;99756.19;5053172;28;20465;-38
2022/02/20 10:27:52;;;;;;;14.70;7.68;;;;;;;13.65;39.05;99756.25;5045834;28;20024;-38
2022/02/20 10:30:25;;;;;;;19.20;8.82;;;;;;;13.32;39.25;99748.59;5034960;28;20048;-38
2022/02/20 10:33:19;;;;;;;13.85;8.30;;;;;;;13.43;38.86;99747.88;5052525;28;20032;-37
2022/02/20 10:35:48;;;;;;;14.57;8.38;;;;;;;14.39;37.38;99743.59;5050219;28;20040;-38
2022/02/20 10:38:16;;;;;;;16.20;8.55;;;;;;;14.06;37.68;99736.81;5052819;28;20107;-37
2022/02/20 10:40:45;;;;;;;16.75;8.73;;;;;;;12.94;39.42;99733.50;5052388;28;20166;-39
2022/02/20 10:43:27;;;;;;;15.05;9.13;;;;;;;14.16;37.87;99724.75;5052524;28;20036;-38
2022/02/20 10:46:12;;;;;;;15.70;9.13;;;;;;;14.20;37.35;99721.41;5051849;28;20031;-38
2022/02/20 10:48:45;;;;;;;15.25;9.40;;;;;;;14.26;37.33;99717.81;5051906;28;20090;-39
2022/02/20 10:51:15;;;;;;;13.98;8.77;;;;;;;13.91;37.94;99703.50;5051258;28;20688;-37
2022/02/20 10:53:41;;;;;;;14.93;8.77;;;;;;;14.88;36.57;99699.78;5056672;28;20033;-39
2022/02/20 10:56:06;;;;;;;18.15;8.25;;;;;;;14.44;36.72;99689.34;5049955;28;20110;-37
2022/02/20 10:58:33;;;;;;;15.93;9.00;;;;;;;14.05;37.39;99686.19;5040222;28;20028;-38
2022/02/20 11:01:00;;;;;;;15.55;8.63;;;;;;;14.56;36.57;99676.78;5059129;28;20020;-38
2022/02/20 11:03:27;;;;;;;16.33;8.52;;;;;;;14.51;37.19;99667.81;5051978;28;20492;-38
2022/02/20 11:05:55;;;;;;;16.23;9.95;;;;;;;14.30;38.27;99670.00;5051907;28;20438;-48
2022/02/20 11:08:24;;;;;;;19.45;9.85;;;;;;;14.32;38.51;99665.22;5054230;28;20119;-49
2022/02/20 11:10:50;;;;;;;17.02;9.65;;;;;;;15.01;36.59;99660.16;5051294;28;20407;-49
2022/02/20 11:13:16;;;;;;;19.90;9.50;;;;;;;14.92;36.56;99645.50;5051533;28;20025;-47
2022/02/20 11:15:43;;;;;;;18.45;9.75;;;;;;;14.52;36.98;99646.16;5051375;28;20032;-51
2022/02/20 11:18:09;;;;;;;17.00;10.45;;;;;;;14.53;37.68;99650.47;5051424;28;20021;-48
2022/02/20 11:20:38;;;;;;;13.95;9.50;;;;;;;15.66;35.71;99650.22;5051428;28;20057;-51
2022/02/20 11:23:04;;;;;;;16.45;9.25;;;;;;;15.29;36.27;99647.06;5033735;28;20034;-48